Tiempo atmosférico en la estación meteorológica de Madridejos, Toledo (690 m.)



Fecha
DESCASC
Temp. máxima en grados centígrados (hora)
DESCASC
Temp. mínima en grados centígrados (hora)
DESCASC
Temp. media en grados centígrados
DESCASC
Racha de viento máxima en m/sg (hora)
DESCASC
Velocidad máxima media en intervalos de 10 minutos(hora)
DESCASC
Precipitaciones diarias en mm
DESCASC
Precipitaciones de 00:00 a 06:00 en mm
DESCASC
Precipitaciones de 06:00 a 12:00 en mm
DESCASC
Precipitaciones de 12:00 a 18:00 en mm
DESCASC
Precipitaciones de 18:00 a 24:00 en mm
DESCASC
24-09-2020 24.1 (17:20) 15.3 (05:40) 19.7 15.28 (18:50) 9.72 (18:30) 0 0 0 0 0
23-09-2020 25.4 (14:30) 16.4 (00:00) 20.9 -- (--) -- (--) 0.2 0 0.2 0 0
22-09-2020 26.1 (17:20) 12.5 (00:00) 19.3 -- (--) -- (--) 0 0 0 0 0
21-09-2020 25.5 (18:10) 13.1 (00:00) 19.3 9.44 (17:20) 4.17 (23:59) 0 0 0 0 0
20-09-2020 23.8 (17:00) 13.4 (00:00) 18.6 11.11 (14:00) 5.83 (12:40) 0 0 0 0 0
19-09-2020 23.2 (16:10) 15.2 (00:00) 19.2 14.17 (16:40) 7.78 (15:20) 0 0 0 0 0
18-09-2020 20.1 (15:20) 15.8 (00:00) 18 11.94 (13:40) 5.83 (13:40) 6 0 0 5.8 0.2
17-09-2020 27.6 (17:50) 16.9 (00:00) 22.3 14.72 (01:00) 7.22 (00:50) 1 1 0 0 0
16-09-2020 31.7 (16:00) 15.1 (08:20) 23.4 13.33 (16:50) 5.56 (15:10) 0.4 0 0 0 0.4
15-09-2020 30.1 (18:00) 16.2 (00:00) 23.2 8.89 (17:40) 4.44 (17:40) 0 0 0 0 0
14-09-2020 31.4 (16:50) 16.3 (00:00) 23.8 15.83 (21:00) 6.11 (21:10) 1.2 0 0 0 1.2
13-09-2020 32.6 (17:10) 16.7 (00:00) 24.6 13.33 (17:50) 7.5 (19:20) 0 0 0 0 0
12-09-2020 32.9 (17:10) 13.4 (08:20) 23.2 10 (02:40) 3.89 (10:30) 0 0 0 0 0
11-09-2020 30.9 (15:20) 12 (00:00) 21.4 6.39 (02:40) 3.33 (02:20) 0 0 0 0 0
10-09-2020 29.5 (19:00) 11.8 (00:00) 20.7 8.61 (13:10) 3.61 (16:40) 0 0 0 0 0
09-09-2020 28.2 (18:10) 11.7 (08:10) 20 8.89 (13:50) 4.44 (11:40) 0 0 0 0 0
08-09-2020 26.1 (17:30) 12.8 (00:00) 19.5 14.44 (10:50) 9.44 (11:00) 0 0 0 0 0
07-09-2020 27 (17:30) 14.8 (08:30) 20.9 13.61 (12:00) 6.11 (13:50) 0 0 0 0 0
06-09-2020 33.1 (18:00) 15.2 (00:00) 24.1 9.44 (03:00) 6.11 (03:30) 0 0 0 0 0
05-09-2020 33.2 (18:00) 11.4 (00:00) 22.3 11.67 (23:50) 5.83 (23:50) 0 0 0 0 0
04-09-2020 30.2 (18:10) 15.3 (00:00) 22.8 13.33 (13:30) 7.22 (12:40) 0 0 0 0 0
03-09-2020 31.4 (17:10) 11.7 (00:00) 21.5 7.78 (12:20) 3.33 (04:00) 0 0 0 0 0
02-09-2020 29.1 (17:10) 10.7 (00:00) 19.9 8.33 (13:50) 4.17 (09:50) 0 0 0 0 0
01-09-2020 28.1 (16:00) 10.9 (00:00) 19.5 7.5 (14:30) 3.61 (11:10) 0 0 0 0 0
31-08-2020 26.9 (18:20) 7.4 (00:00) 17.1 8.61 (21:00) 3.33 (00:20) 0 0 0 0 0
30-08-2020 23.4 (17:30) 9 (00:00) 16.2 10 (18:20) 5 (14:20) 0 0 0 0 0
29-08-2020 24.3 (16:30) 14.1 (00:00) 19.2 15 (13:00) 7.5 (12:10) 0 0 0 0 0
28-08-2020 33.8 (16:20) 20.3 (00:00) 27 14.72 (18:00) 8.06 (19:10) 0 0 0 0 0
27-08-2020 37.6 (16:40) 17.7 (00:00) 27.6 7.78 (14:50) 4.44 (21:30) 0 0 0 0 0
26-08-2020 38.1 (17:10) 18.3 (00:00) 28.2 8.33 (02:10) 5.28 (20:40) 0 0 0 0 0

Gráficas

Temp. máximas Temp. mínimas Temp. medias Precipitaciones Rachas de viento máximas Velocidades máximas media en intervalos de 10 minutos

Datos horarios

Fecha y hora oficial Temperatura (ºC) Velocidad del viento (km/h) Dirección del viento Racha (km/h) Dirección de racha Precipitación (mm) Presión (hPa) Tendencia (hPa) Humedad (%)
2020-09-24 23:00:00 17.2 16 Oeste 36 Oeste 0 938 1.4 70
2020-09-24 22:00:00 17.9 21 Oeste 39 Oeste 0 937.6 1.6 75
2020-09-24 21:00:00 18.7 22 Sudoeste 46 Sudoeste 0 937.1 -- 73
2020-09-24 20:00:00 19.8 22 Sudoeste 53 Sudoeste 0 936.6 -- 68
2020-09-24 19:00:00 21.1 31 Sudoeste 55 Sudoeste 0 936 -- 62
2020-09-24 18:00:00 22.7 29 Oeste 51 Sudoeste 0 935.9 -- 51
2020-09-24 17:00:00 23.3 27 Sudoeste 52 Oeste 0 935.8 -- 50
2020-09-24 16:00:00 22.3 25 Sudoeste 48 Sudoeste 0 936 -- 53
2020-09-24 15:00:00 22.7 28 Sudoeste 46 Sudoeste 0 936.4 -- 52
2020-09-24 14:00:00 21.6 27 Sudoeste 46 Sudoeste 0 936.9 -- 57
2020-09-24 13:00:00 21.3 28 Sudoeste 46 Sudoeste 0 937.1 -- 59
2020-09-24 12:00:00 20.5 28 Sudoeste 49 Sudoeste 0 937.2 -- 62
2020-09-24 11:00:00 19.2 24 Sudoeste 39 Sudoeste 0 936.9 -- 69
2020-09-24 10:00:00 17.9 16 Sudoeste 33 Sudoeste 0 936.4 -- 76
2020-09-24 09:00:00 17.1 14 Sudoeste 25 Sudoeste 0 936.1 -- 78
2020-09-24 08:00:00 16.6 12 Sudoeste 23 Sudoeste 0 935.9 -- 80
2020-09-24 07:00:00 15.6 9 Sudoeste 22 Sudoeste 0 936.1 -- 81
2020-09-24 06:00:00 15.3 6 Sudoeste 21 Oeste 0 936.2 -- 82
2020-09-24 05:00:00 16.3 14 Oeste 30 Oeste 0 936 -- 79
2020-09-24 04:00:00 16.7 9 Sudoeste 22 Oeste 0 936.2 -- 74
2020-09-24 03:00:00 17.2 8 Oeste 23 Oeste 0 936.5 -- 71
2020-09-24 02:00:00 18.3 13 Sudoeste 23 Oeste 0 936.4 -- 66
2020-09-24 01:00:00 18.9 12 Oeste 25 Oeste 0 936.6 -- 62
2020-09-24 00:00:00 19.4 13 Oeste 25 Oeste 0 936.4 -- 58
2020-09-23 23:00:00 19.1 11 Oeste 22 Oeste 0 936.6 -- 57
2020-09-23 22:00:00 19.5 10 Oeste 23 Oeste 0 936 -- 53
2020-09-23 21:00:00 20.8 13 Oeste 31 Oeste 0 935.2 -- 45
2020-09-23 20:00:00 22.5 15 Oeste 36 Oeste 0 934.6 -- 38
2020-09-23 19:00:00 24 17 Oeste 35 Oeste 0 934.2 -- 35
2020-09-23 18:00:00 24.5 21 Oeste 37 Oeste 0 934 -- 34
2020-09-23 17:00:00 24.6 22 Oeste 36 Oeste 0 934.3 -- 37
2020-09-23 16:00:00 23.8 24 Oeste 41 Oeste 0 934.4 -- 39
2020-09-23 15:00:00 24.6 23 Oeste 55 Sudoeste 0 934.5 -- 40
2020-09-23 14:00:00 23.9 18 Sudoeste -- -- 0 934.9 -- 42
2020-09-23 13:00:00 21.4 13 Oeste 24 Oeste 0 935.4 -- 55
2020-09-23 12:00:00 20.6 8 Sudoeste 24 Oeste 0 935.8 -- 60
2020-09-23 11:00:00 19.6 11 Sudoeste 23 Sur 0 935.8 -- 66
2020-09-23 10:00:00 17.8 6 Oeste 21 Sudoeste 0 935.5 -- 76
2020-09-23 09:00:00 16.9 11 Sudoeste 22 Sur 0 935.4 -- 76
2020-09-23 08:00:00 16.9 9 Sudeste -- -- 0.2 934.9 -- 74
2020-09-23 07:00:00 17.3 7 Sudoeste 21 Sudoeste 0 934.7 -- 67
2020-09-23 06:00:00 16.9 13 Oeste 22 Oeste 0 934.8 -- 67
2020-09-23 05:00:00 17.9 6 Sudoeste 22 Sudoeste 0 934.8 -- 62
2020-09-23 04:00:00 18.8 9 Sudoeste 22 Sudoeste 0 935 -- 58
2020-09-23 03:00:00 18.5 9 Sudoeste 22 Sudoeste 0 935.4 -- 58
2020-09-23 02:00:00 18.2 8 Sudoeste 22 Oeste 0 935.5 -- 58
2020-09-23 01:00:00 17.2 4 Sudoeste -- -- 0 935.7 -- 61
2020-09-23 00:00:00 17.8 -- -- -- -- 0 935.9 -- 58
2020-09-22 23:00:00 19.2 12 Sudoeste 23 Oeste 0 936 -- 52
2020-09-22 22:00:00 19.7 11 Oeste 24 Oeste 0 935.5 -- 51
2020-09-22 21:00:00 21.3 13 Oeste 31 Oeste 0 934.9 -- 45
2020-09-22 20:00:00 23.3 13 Oeste -- -- 0 934.5 -- 38
2020-09-22 19:00:00 25 -- -- -- -- 0 934.2 -- 33
2020-09-22 18:00:00 25.1 -- -- -- -- 0 934.4 -- 32
2020-09-22 17:00:00 25.7 -- -- -- -- 0 934.7 -- 31
2020-09-22 16:00:00 25 17 Oeste 37 Oeste 0 935.3 -- 33
2020-09-22 15:00:00 24.9 13 Noroeste 35 Oeste 0 936.1 -- 33
2020-09-22 14:00:00 24.5 12 Oeste 31 Oeste 0 936.7 -- 35
2020-09-22 13:00:00 23.1 10 Sudoeste 26 Oeste 0 937 -- 39
2020-09-22 12:00:00 21.7 13 Oeste 28 Sudoeste 0 937.4 -- 41
2020-09-22 11:00:00 19.9 11 Sudoeste 21 Sur 0 937.5 -- 48
2020-09-22 10:00:00 16.2 4 Sudoeste 11 Este 0 937.1 -- 62
2020-09-22 09:00:00 13.4 3 Sudoeste 12 Este 0 937.1 -- 73
2020-09-22 08:00:00 13 4 Sur 13 Sudeste 0 936.6 -- 74
2020-09-22 07:00:00 12.5 3 Este 11 Este 0 936.5 -- 76
2020-09-22 06:00:00 13.9 5 Sudoeste 12 Sudoeste 0 936.5 -- 69
2020-09-22 05:00:00 15.1 8 Sudoeste 13 Sudoeste 0 936.8 -- 66
2020-09-22 04:00:00 15 6 Sudoeste 11 Sudoeste 0 937.2 -- 66
2020-09-22 03:00:00 14.8 8 Sudoeste 12 Sudoeste 0 937.6 -- 67
2020-09-22 02:00:00 14.4 5 Oeste 22 Oeste 0 938 -- 65
2020-09-22 01:00:00 15.4 10 Oeste 22 Oeste 0 938.1 -- 62
2020-09-22 00:00:00 15.9 15 Oeste 26 Oeste 0 938.1 -- 60
2020-09-21 23:00:00 17 9 Noroeste 24 Oeste 0 937.8 -- 59
2020-09-21 22:00:00 18.7 6 Noroeste 11 Noroeste 0 937.7 -- 52
2020-09-21 21:00:00 20.8 5 Norte 27 Oeste 0 937.3 -- 44
2020-09-21 20:00:00 23.5 8 Oeste 31 Oeste 0 937 -- 29
2020-09-21 19:00:00 25.1 9 Oeste 31 Oeste 0 936.8 -- 28
2020-09-21 18:00:00 25.4 8 Sudoeste 34 Oeste 0 936.8 -- 29
2020-09-21 17:00:00 25 5 Oeste 32 Oeste 0 937.1 -- 30
2020-09-21 16:00:00 23.8 9 Oeste 30 Oeste 0 937.6 -- 33
2020-09-21 15:00:00 23.9 12 Oeste 31 Oeste 0 938.1 -- 36
2020-09-21 14:00:00 23 9 Noroeste -- -- -- 938.6 -- 41
2020-09-21 13:00:00 23.1 12 Oeste 26 Oeste 0 939 -- 41
2020-09-21 12:00:00 21 8 Sudoeste 23 Oeste 0 939.4 -- 50
2020-09-21 11:00:00 19 9 Oeste 22 Oeste 0 939.5 -- 59
2020-09-21 10:00:00 15.3 4 Oeste 11 Sudeste 0 939.1 -- 79
2020-09-21 09:00:00 13.3 5 Sudoeste 12 Sudeste 0 939 -- 83
2020-09-21 08:00:00 13.4 6 Sudoeste 12 Sudeste 0 938.6 -- 83
2020-09-21 07:00:00 13.5 7 Sudeste 11 Este 0 938.3 -- 84
2020-09-21 06:00:00 13.4 5 Sudoeste 11 Sudeste 0 938.3 -- 84
2020-09-21 05:00:00 13.1 3 Sudoeste 20 Oeste 0 938.3 -- 82
2020-09-21 04:00:00 13.6 8 Oeste 22 Oeste 0 938.6 -- 83
2020-09-21 03:00:00 14 6 Sudoeste 11 Este 0 939 -- 81
2020-09-21 02:00:00 14.8 5 Sudoeste 11 Sudoeste 0 939.1 -- 79
2020-09-21 01:00:00 15.8 9 Sudoeste 21 Oeste 0 939.2 -- 76
2020-09-21 00:00:00 16.5 4 Sudoeste 21 Oeste 0 939.3 -- 71
2020-09-20 23:00:00 17.4 6 Sudoeste 26 Oeste 0 939.3 -- 67
2020-09-20 22:00:00 17.7 15 Oeste 24 Oeste 0 939 -- 66
2020-09-20 21:00:00 20.4 10 Oeste 24 Oeste 0 938.4 -- 53
2020-09-20 20:00:00 21.6 12 Oeste 28 Oeste 0 938 -- 48
2020-09-20 19:00:00 22.3 13 Oeste 32 Oeste 0 937.6 -- 48
2020-09-20 18:00:00 23.2 17 Oeste 35 Sudoeste 0 937.6 -- 43
2020-09-20 17:00:00 23.4 18 Sudoeste 35 Oeste 0 937.9 -- 46
2020-09-20 16:00:00 22.1 14 Oeste 33 Oeste 0 938.5 -- 50
2020-09-20 15:00:00 22 21 Sudoeste 36 Sudoeste 0 938.9 -- 52
2020-09-20 14:00:00 21.8 17 Oeste 40 Oeste 0 939.3 -- 51
2020-09-20 13:00:00 20 20 Sudoeste 39 Sudoeste 0 939.6 -- 59
2020-09-20 12:00:00 19.8 18 Sudoeste 32 Sudoeste 0 939.7 -- 61
2020-09-20 11:00:00 18.1 15 Sudoeste 24 Sudoeste 0 939.6 -- 68
2020-09-20 10:00:00 16.3 13 Sudoeste 21 Sudoeste 0 939.3 -- 78
2020-09-20 09:00:00 14.7 6 Sudoeste 15 Sudoeste 0 939.1 -- 85
2020-09-20 08:00:00 13.9 5 Sudoeste 12 Este 0 938.7 -- 86
2020-09-20 07:00:00 14.2 0 Calma 21 Oeste 0 938.7 -- 81
2020-09-20 06:00:00 15.5 7 Oeste 21 Oeste 0 938.7 -- 80
2020-09-20 05:00:00 15.9 10 Oeste 23 Sur 0 938.7 -- 75
2020-09-20 04:00:00 16.6 4 Sudoeste 20 Oeste 0 939 -- 70
2020-09-20 03:00:00 16.9 7 Sudoeste 20 Oeste 0 939.1 -- 67
2020-09-20 02:00:00 16.5 4 Sudoeste 21 Oeste 0 939.1 -- 68
2020-09-20 01:00:00 16.2 7 Oeste 20 Oeste 0 939.1 -- 67
2020-09-20 00:00:00 16.7 11 Oeste 21 Oeste 0 939 -- 64
2020-09-19 23:00:00 17.4 10 Sudoeste 22 Oeste 0 938.9 -- 61
2020-09-19 22:00:00 18.7 11 Sudoeste 23 Oeste 0 938.5 -- 57
2020-09-19 21:00:00 18.8 13 Oeste 26 Oeste 0 937.7 -- 56
2020-09-19 20:00:00 21.1 10 Sudoeste 32 Oeste 0 937.2 -- 47
2020-09-19 19:00:00 22 22 Oeste 38 Oeste 0 937 -- 42
2020-09-19 18:00:00 22.8 19 Oeste 39 Oeste 0 936.7 -- 41
2020-09-19 17:00:00 22.5 23 Sudoeste 51 Sudoeste 0 936.8 -- 41
2020-09-19 16:00:00 23.1 27 Sudoeste 48 Sudoeste 0 937.2 -- 39
2020-09-19 15:00:00 22 24 Sudoeste 49 Sudoeste 0 937.5 -- 44
2020-09-19 14:00:00 19.8 23 Oeste 44 Sudoeste 0 938 -- 56
2020-09-19 13:00:00 18.6 21 Sudoeste 41 Sudoeste 0 938.1 -- 71
2020-09-19 12:00:00 17.5 15 Oeste 40 Sudoeste 0 938.3 -- 72
2020-09-19 11:00:00 17.3 18 Sudoeste 36 Sudoeste 0 938 -- 72
2020-09-19 10:00:00 16.4 16 Sudoeste 29 Sudoeste 0 937.4 -- 75
2020-09-19 09:00:00 15.7 9 Sudoeste 28 Sur 0 937 -- 78
2020-09-19 08:00:00 15.8 14 Sudoeste 35 Sudoeste 0 936.3 -- 78
2020-09-19 07:00:00 15.5 13 Sudoeste 36 Sudoeste 0 936 -- 79
2020-09-19 06:00:00 15.3 17 Sudoeste 38 Sudoeste 0 935.6 -- 80
2020-09-19 05:00:00 15.6 13 Sudoeste 25 Sur 0 935.6 -- 79
2020-09-19 04:00:00 16 17 Sudoeste 48 Sur 0 935.8 -- 77
2020-09-19 03:00:00 17 18 Sur 47 Sur 0 935.6 -- 70
2020-09-19 02:00:00 16.4 14 Sur 42 Sudoeste 0 936 -- 77
2020-09-19 01:00:00 16 15 Sur 32 Sur 0 935.9 -- 86
2020-09-19 00:00:00 15.8 15 Sudeste 37 Sur 0 935.9 -- 86
2020-09-18 23:00:00 16 13 Sudeste 26 Sudeste 0 936 -- 86
2020-09-18 22:00:00 16.8 15 Sudeste 27 Sudeste 0 935.3 -- 78
2020-09-18 21:00:00 17.4 12 Sur 22 Sur 0.2 934.7 -- 72
2020-09-18 20:00:00 18.1 13 Sur 25 Sur 0 934.9 -- 68
2020-09-18 19:00:00 18 13 Sur 24 Sur 0 935.1 -- 69
2020-09-18 18:00:00 17.1 11 Sur 42 Sudoeste 2.8 934.9 -- 79
2020-09-18 17:00:00 18.4 12 Sudeste 30 Sudeste 0.4 933.4 -- 77
2020-09-18 16:00:00 19.7 16 Sudeste 31 Sudeste 0 933.5 -- 68
2020-09-18 15:00:00 19.4 14 Sudeste 31 Sudeste 0 934.1 -- 71
2020-09-18 14:00:00 18 17 Sur 43 Sur 0.8 935.2 -- 78
2020-09-18 13:00:00 16.6 18 Este 41 Este 1.8 934.8 -- 84
2020-09-18 12:00:00 18.7 13 Este 26 Este 0 934.4 -- 69
2020-09-18 11:00:00 18.4 13 Este 27 Sudeste 0 934.7 -- 70
2020-09-18 10:00:00 17.9 15 Sudeste 29 Sudeste 0 934.4 -- 69
2020-09-18 09:00:00 16.8 10 Sudeste 27 Sudeste 0 933.6 -- 73
2020-09-18 08:00:00 17.8 17 Sudeste 34 Sudeste 0 933.2 -- 67
2020-09-18 07:00:00 18.5 11 Sudeste 30 Sur 0 933.1 -- 62
2020-09-18 06:00:00 18.9 15 Sudeste 33 Sudeste 0 932.8 -- 62
2020-09-18 05:00:00 18.9 15 Sudeste 37 Sur 0 933.1 -- 63
2020-09-18 04:00:00 19.1 12 Sur 32 Sur 0 933.2 -- 64
2020-09-18 03:00:00 19.5 14 Sur 30 Sur 0 933.8 -- 67
2020-09-18 02:00:00 19 11 Sudeste 28 Sudeste 0 933.8 -- 78
2020-09-18 01:00:00 19.4 4 Sur 27 Sudeste 0 934.2 -- 78
2020-09-18 00:00:00 19.4 11 Sudeste 28 Este 0 934.6 -- 80
2020-09-17 23:00:00 20.7 12 Este 28 Sur 0 934.8 -- 70
2020-09-17 22:00:00 21.8 9 Sur 36 Sudeste 0 934.2 -- 62
2020-09-17 21:00:00 23.7 23 Sudeste 47 Sudeste 0 933.7 -- 48
2020-09-17 20:00:00 25.9 8 Sur 29 Sur 0 933.4 -- 40
2020-09-17 19:00:00 26.5 13 Sur 36 Sur 0 933.4 -- 39
2020-09-17 18:00:00 27.4 18 Sur 44 Sur 0 933.9 -- 37
2020-09-17 17:00:00 26.1 21 Sur 39 Sur 0 934.5 -- 40
2020-09-17 16:00:00 26.2 13 Sur 36 Sur 0 934.9 -- 41
2020-09-17 15:00:00 25.5 18 Sur 40 Sur 0 935.5 -- 45
2020-09-17 14:00:00 25 14 Sur 38 Sur 0 936 -- 49
2020-09-17 13:00:00 23.9 13 Sur 33 Sur 0 936.4 -- 54
2020-09-17 12:00:00 22.1 9 Sudeste 28 Sudeste 0 936.8 -- 65
2020-09-17 11:00:00 20.9 12 Sudeste 24 Este 0 936.6 -- 71
2020-09-17 10:00:00 19 6 Este 18 Este 0 936.5 -- 77
2020-09-17 09:00:00 17.4 6 Sudeste 19 Este 0 936.5 -- 84
2020-09-17 08:00:00 17.7 8 Este 21 Sur 0 936.2 -- 82
2020-09-17 07:00:00 18.5 7 Sudeste 23 Sur 0 936 -- 80
2020-09-17 06:00:00 18.7 6 Sudeste 21 Sur 0 936.3 -- 80
2020-09-17 05:00:00 18.5 11 Sur 23 Sur 0 936.4 -- 81
2020-09-17 04:00:00 18.4 9 Sudeste 22 Este 0 937.2 -- 81
2020-09-17 03:00:00 18.3 9 Este 28 Sur 0.8 937.5 -- 80
2020-09-17 02:00:00 19.5 15 Sur 47 Sudoeste 0.2 938.5 -- 74
2020-09-17 01:00:00 23.1 26 Sudoeste 53 Oeste 0 937.9 -- 45
2020-09-17 00:00:00 23.8 13 Sudoeste 31 Oeste 0 936.7 -- 43
2020-09-16 23:00:00 23.5 7 Oeste 14 Oeste 0 936.3 -- 49
2020-09-16 22:00:00 24.5 5 Nordeste 42 Sur 0.4 936.2 -- 40
2020-09-16 21:00:00 28.2 12 Sudeste 21 Sudeste 0 935.6 -- 25
2020-09-16 20:00:00 29.3 7 Sudeste 20 Sudeste 0 935.7 -- 27
2020-09-16 19:00:00 30.2 10 Sudeste 23 Sudeste 0 935.9 -- 26
2020-09-16 18:00:00 30.5 14 Este 31 Este 0 936 -- 24
2020-09-16 17:00:00 31.5 12 Sudeste 48 Sur 0 936.5 -- 23
2020-09-16 16:00:00 31.2 8 Sudeste 35 Sur 0 937.3 -- 24
2020-09-16 15:00:00 30.1 14 Sudeste 31 Sudeste 0 938 -- 27
2020-09-16 14:00:00 29.3 9 Sudeste 21 Sudeste 0 938.9 -- 28
2020-09-16 13:00:00 27.6 7 Sudeste 18 Este 0 939.7 -- 33
2020-09-16 12:00:00 25.4 4 Sudeste 10 Este 0 940.1 -- 38
2020-09-16 11:00:00 21.7 6 Este 21 Este 0 940.4 -- 51
2020-09-16 10:00:00 19.2 6 Este 16 Este 0 940.4 -- 58
2020-09-16 09:00:00 16.9 3 Este 17 Este 0 940.2 -- 65
2020-09-16 08:00:00 15.5 6 Norte 17 Nordeste 0 940.2 -- 66
2020-09-16 07:00:00 15.4 5 Noroeste 19 Oeste 0 940.1 -- 65
2020-09-16 06:00:00 15.7 14 Oeste 21 Oeste 0 940.1 -- 65
2020-09-16 05:00:00 17 7 Norte 20 Norte 0 940.3 -- 59
2020-09-16 04:00:00 17.4 4 Noroeste 6 Oeste 0 940.4 -- 61
2020-09-16 03:00:00 18.2 2 Noroeste 23 Este 0 940.7 -- 57
2020-09-16 02:00:00 18.4 8 Sur 22 Oeste 0 940.9 -- 58
2020-09-16 01:00:00 18.9 8 Oeste 11 Oeste 0 940.7 -- 57
2020-09-16 00:00:00 20.2 4 Sudoeste 10 Norte 0 940.7 -- 54
2020-09-15 23:00:00 21.7 2 Este 12 Norte 0 940.6 -- 48
2020-09-15 22:00:00 23.8 5 Sudoeste 10 Este 0 940.2 -- 41
2020-09-15 21:00:00 25.8 5 Oeste 12 Oeste 0 939.7 -- 34
2020-09-15 20:00:00 28.3 6 Sudoeste 22 Oeste 0 939.6 -- 29
2020-09-15 19:00:00 29.4 13 Oeste 25 Sudoeste 0 939.8 -- 24
2020-09-15 18:00:00 29.8 13 Sudoeste 32 Oeste 0 940 -- 19
2020-09-15 17:00:00 29 5 Noroeste 26 Sudeste 0 940.3 -- 32
2020-09-15 16:00:00 28.5 7 Sur 22 Sudeste 0 940.9 -- 36
2020-09-15 15:00:00 28.5 11 Sudeste 23 Sur 0 941.6 -- 37
2020-09-15 14:00:00 26.6 7 Este 14 Este 0 942 -- 45
2020-09-15 13:00:00 25.7 5 Norte 14 Noroeste 0 942.5 -- 44
2020-09-15 12:00:00 24.1 5 Sudoeste 21 Este 0 943 -- 56
2020-09-15 11:00:00 21.8 5 Sudeste 19 Este 0 943 -- 69
2020-09-15 10:00:00 18.5 4 Nordeste 18 Nordeste 0 942.5 -- 81
2020-09-15 09:00:00 17.1 7 Nordeste 20 Oeste 0 942.3 -- 84
2020-09-15 08:00:00 16.8 12 Oeste 22 Oeste 0 941.6 -- 81
2020-09-15 07:00:00 16.3 2 Sudoeste 17 Este 0 941.4 -- 84
2020-09-15 06:00:00 17.1 9 Sudeste 19 Sudoeste 0 941.3 -- 82
2020-09-15 05:00:00 18 5 Sudeste 21 Este 0 941.3 -- 78
2020-09-15 04:00:00 17.9 8 Este 26 Este 0 941.5 -- 78
2020-09-15 03:00:00 18.8 12 Este 26 Este 0 941.6 -- 74
2020-09-15 02:00:00 19.5 4 Sur 24 Sur 0 941.7 -- 73
2020-09-15 01:00:00 19.7 8 Sur 24 Sudoeste 0 941.1 -- 71
2020-09-15 00:00:00 20.1 5 Sudoeste 26 Sur 0 940.9 -- 71
2020-09-14 23:00:00 20.7 12 Sudoeste 29 Oeste 1.2 941.1 -- 69
2020-09-14 22:00:00 24.1 5 Sur 38 Oeste 0 940.1 -- 47
2020-09-14 21:00:00 27.8 20 Sudoeste 57 Sudoeste 0 940.6 -- 29
2020-09-14 20:00:00 28.6 14 Sudeste 31 Este 0 939 -- 26
2020-09-14 19:00:00 29.3 15 Sudeste 38 Sudeste 0 938.9 -- 22
2020-09-14 18:00:00 30 8 Nordeste 20 Sur 0 939.6 -- 19
2020-09-14 17:00:00 31 11 Sur 25 Sudeste 0 940 -- 19
2020-09-14 16:00:00 30.9 12 Sudeste 29 Sudeste 0 940.4 -- 19
2020-09-14 15:00:00 30 11 Sudeste 27 Sudeste 0 941.3 -- 21
2020-09-14 14:00:00 29 10 Sudeste 22 Sudeste 0 941.9 -- 26
2020-09-14 13:00:00 25.6 9 Sudeste 29 Este 0 942.5 -- 33
2020-09-14 12:00:00 23.8 12 Sudeste 28 Sudeste 0 942.8 -- 42
2020-09-14 11:00:00 21.6 14 Este 27 Este 0 942.7 -- 50
2020-09-14 10:00:00 18.9 9 Sudeste 22 Sur 0 942.7 -- 62
2020-09-14 09:00:00 17.5 9 Sudeste 23 Este 0 942.5 -- 66
2020-09-14 08:00:00 16.5 11 Sudeste 22 Este 0 942 -- 69
2020-09-14 07:00:00 16.6 9 Este 23 Este 0 941.6 -- 66
2020-09-14 06:00:00 17.1 12 Sudeste 23 Este 0 941.8 -- 62
2020-09-14 05:00:00 17.8 12 Este 24 Este 0 942.1 -- 59
2020-09-14 04:00:00 18.6 12 Este 25 Este 0 942.4 -- 54
2020-09-14 03:00:00 18.1 13 Este 22 Este 0 942.8 -- 53
2020-09-14 02:00:00 20.3 6 Sudeste 30 Este 0 943 -- 46
2020-09-14 01:00:00 21.5 17 Este 32 Este 0 942.7 -- 43
2020-09-14 00:00:00 22.8 7 Sudeste 28 Este 0 942.6 -- 40
2020-09-13 23:00:00 24.1 11 Sudeste 32 Este 0 942.3 -- 34
2020-09-13 22:00:00 25.4 12 Este 32 Este 0 942 -- 29
2020-09-13 21:00:00 27.3 12 Este 34 Este 0 941.1 -- 26
2020-09-13 20:00:00 29.5 17 Sudeste 42 Este 0 941.1 -- 21
2020-09-13 19:00:00 30.9 22 Este 46 Este 0 940.8 -- 19
2020-09-13 18:00:00 31.8 24 Sudeste 48 Sudeste 0 940.6 -- 18
2020-09-13 17:00:00 32.4 23 Sudeste 42 Este 0 941 -- 17
2020-09-13 16:00:00 31.4 23 Este 41 Este 0 941.3 -- 20
2020-09-13 15:00:00 30.1 14 Sudeste 33 Este 0 942 -- 22
2020-09-13 14:00:00 28.6 14 Este 28 Este 0 942.5 -- 22
2020-09-13 13:00:00 27.6 8 Sudeste 29 Este 0 942.9 -- 29
2020-09-13 12:00:00 25.4 10 Sudeste 31 Este 0 943.2 -- 36
2020-09-13 11:00:00 23.4 14 Sudeste 28 Sudeste 0 942.9 -- 44
2020-09-13 10:00:00 20.1 15 Este 26 Sudeste 0 942.7 -- 56
2020-09-13 09:00:00 17.8 12 Sudeste 23 Este 0 942.4 -- 64
2020-09-13 08:00:00 17 14 Sudeste 25 Sur 0 941.8 -- 66
2020-09-13 07:00:00 17.5 15 Sur 26 Este 0 941.5 -- 63
2020-09-13 06:00:00 18.1 14 Sudeste 26 Sudeste 0 941 -- 61
2020-09-13 05:00:00 18.7 6 Sudeste 26 Este 0 940.9 -- 57
2020-09-13 04:00:00 19 13 Este 26 Este 0 940.7 -- 54
2020-09-13 03:00:00 19.2 12 Este 23 Este 0 940.7 -- 49
2020-09-13 02:00:00 19.1 12 Este 24 Este 0 940.4 -- 42
2020-09-13 01:00:00 21.9 6 Sudeste 22 Este 0 940.3 -- 33
2020-09-13 00:00:00 23.7 5 Sudeste 18 Sur 0 939.9 -- 30
2020-09-12 23:00:00 25.2 12 Sudeste 32 Este 0 939.7 -- 27
2020-09-12 22:00:00 24.5 7 Nordeste 13 Nordeste 0 939 -- 25
2020-09-12 21:00:00 27.5 9 Nordeste 13 Nordeste 0 938.3 -- 20
2020-09-12 20:00:00 30.9 6 Nordeste 15 Nordeste 0 938.1 -- 16
2020-09-12 19:00:00 31.1 11 Nordeste 18 Nordeste 0 937.9 -- 17
2020-09-12 18:00:00 32.1 9 Norte 19 Norte 0 937.8 -- 16
2020-09-12 17:00:00 32.7 5 Sur 15 Sur 0 937.8 -- 15
2020-09-12 16:00:00 31.5 10 Este 26 Nordeste 0 938.3 -- 18
2020-09-12 15:00:00 31.1 11 Este 19 Sudeste 0 938.4 -- 20
2020-09-12 14:00:00 30.1 6 Este 22 Este 0 938.8 -- 23
2020-09-12 13:00:00 28.2 9 Sudeste 30 Este 0 939.2 -- 27
2020-09-12 12:00:00 25.7 10 Este 27 Este 0 939.1 -- 32
2020-09-12 11:00:00 23.1 12 Sudeste 26 Este 0 938.9 -- 40
2020-09-12 10:00:00 20.3 9 Este 22 Este 0 938.4 -- 48
2020-09-12 09:00:00 16.2 8 Noroeste 17 Oeste 0 938.3 -- 54
2020-09-12 08:00:00 13.6 0 Calma 19 Sudoeste 0 937.6 -- 57
2020-09-12 07:00:00 14.7 12 Sudoeste 20 Sudoeste 0 937.1 -- 51
2020-09-12 06:00:00 17.1 8 Sudeste 19 Este 0 936.9 -- 51
2020-09-12 05:00:00 17.3 9 Este 20 Este 0 936.8 -- 45
2020-09-12 04:00:00 17.3 13 Nordeste 27 Norte 0 936.7 -- 42
2020-09-12 03:00:00 17.7 10 Sudeste 36 Este 0 936.7 -- 40
2020-09-12 02:00:00 17.1 4 Norte 19 Oeste 0 936.2 -- 40
2020-09-12 01:00:00 19.1 7 Sudoeste 22 Sudoeste 0 935.9 -- 37
2020-09-12 00:00:00 19.6 7 Sudoeste 11 Sudoeste 0 935.8 -- 36
2020-09-11 23:00:00 23.4 4 Norte 10 Nordeste 0 935.6 -- 28
2020-09-11 22:00:00 24.5 5 Nordeste 13 Noroeste 0 935.4 -- 27
2020-09-11 21:00:00 26.8 7 Nordeste 15 Nordeste 0 934.9 -- 24
2020-09-11 20:00:00 29 10 Nordeste 15 Nordeste 0 934.8 -- 21
2020-09-11 19:00:00 29.7 8 Nordeste 19 Nordeste 0 934.7 -- 19
2020-09-11 18:00:00 30.2 9 Nordeste 17 Norte 0 934.8 -- 19
2020-09-11 17:00:00 30.2 7 Norte 15 Nordeste 0 935.1 -- 18
2020-09-11 16:00:00 30 6 Este 19 Norte 0 935.5 -- 19
2020-09-11 15:00:00 29.8 4 Sudeste 16 Sur 0 936 -- 21
2020-09-11 14:00:00 28.7 6 Este 14 Este 0 936.5 -- 24
2020-09-11 13:00:00 26.2 3 Nordeste 10 Nordeste 0 937.1 -- 38
2020-09-11 12:00:00 23.8 3 Sur 19 Este 0 937.3 -- 49
2020-09-11 11:00:00 21.7 8 Sudeste 22 Este 0 937.3 -- 57
2020-09-11 10:00:00 19 8 Este 17 Este 0 936.9 -- 64
2020-09-11 09:00:00 14.2 0 Calma 12 Oeste 0 936.8 -- 60
2020-09-11 08:00:00 12 3 Sudoeste 16 Nordeste 0 936.6 -- 64
2020-09-11 07:00:00 14.3 4 Noroeste 16 Nordeste 0 936.4 -- 67
2020-09-11 06:00:00 16.2 6 Este 19 Este 0 936.3 -- 65
2020-09-11 05:00:00 15.8 10 Este 16 Este 0 936.5 -- 56
2020-09-11 04:00:00 17.3 7 Este 22 Nordeste 0 936.7 -- 43
2020-09-11 03:00:00 17.6 6 Norte 23 Nordeste 0 936.8 -- 38
2020-09-11 02:00:00 16 9 Oeste 20 Oeste 0 936.9 -- 41
2020-09-11 01:00:00 17.4 8 Sudoeste 21 Oeste 0 936.9 -- 39
2020-09-11 00:00:00 18.7 8 Sudoeste 10 Oeste 0 937.1 -- 36
2020-09-10 23:00:00 20.5 6 Sudoeste 8 Sudoeste 0 937.1 -- 31
2020-09-10 22:00:00 22.9 3 Noroeste 15 Oeste 0 937 -- 31
2020-09-10 21:00:00 25.8 5 Noroeste 17 Noroeste 0 936.7 -- 24
2020-09-10 20:00:00 28.4 6 Noroeste 20 Noroeste 0 936.8 -- 19
2020-09-10 19:00:00 29.4 12 Noroeste 23 Noroeste 0 937.1 -- 19
2020-09-10 18:00:00 29 8 Norte 25 Norte 0 937.4 -- 20
2020-09-10 17:00:00 29.3 13 Norte 28 Norte 0 937.8 -- 20
2020-09-10 16:00:00 28.6 9 Norte 28 Nordeste 0 938.4 -- 21
2020-09-10 15:00:00 27.9 10 Noroeste 30 Nordeste 0 939 -- 23
2020-09-10 14:00:00 26.4 8 Noroeste 31 Norte 0 939.7 -- 28
2020-09-10 13:00:00 24.3 6 Norte 27 Norte 0 940.4 -- 35
2020-09-10 12:00:00 22.9 5 Norte 22 Nordeste 0 940.9 -- 35
2020-09-10 11:00:00 20.5 6 Sur 19 Norte 0 941 -- 47
2020-09-10 10:00:00 18.9 6 Este 17 Nordeste 0 940.7 -- 49
2020-09-10 09:00:00 13.9 0 Calma 20 Norte 0 940.3 -- 55
2020-09-10 08:00:00 12.2 7 Norte 17 Oeste 0 940 -- 56
2020-09-10 07:00:00 12.7 6 Oeste 19 Oeste 0 939.3 -- 52
2020-09-10 06:00:00 13.9 6 Sudoeste 18 Este 0 939.6 -- 48
2020-09-10 05:00:00 15.5 6 Este 19 Este 0 939.8 -- 45
2020-09-10 04:00:00 15.6 8 Sudeste 23 Este 0 939.8 -- 42
2020-09-10 03:00:00 15.4 9 Sudoeste 13 Sudoeste 0 940.1 -- 45
2020-09-10 02:00:00 16.2 9 Sudoeste 13 Oeste 0 940.4 -- 41
2020-09-10 01:00:00 16.6 9 Oeste 13 Oeste 0 940.5 -- 41
2020-09-10 00:00:00 17.8 8 Sudoeste 12 Sudoeste 0 940.5 -- 37
2020-09-09 23:00:00 19.6 4 Noroeste 6 Oeste 0 940.5 -- 35
2020-09-09 22:00:00 22.1 2 Noroeste 4 Norte 0 940.5 -- 30
2020-09-09 21:00:00 24.8 3 Norte 9 Norte 0 939.9 -- 25
2020-09-09 20:00:00 26.7 5 Norte 18 Noroeste 0 939.8 -- 22
2020-09-09 19:00:00 27.2 6 Norte 21 Norte 0 939.9 -- 21
2020-09-09 18:00:00 27.9 3 Noroeste 20 Noroeste 0 940 -- 22
2020-09-09 17:00:00 27.7 4 Noroeste 15 Norte 0 940.3 -- 22
2020-09-09 16:00:00 26.7 5 Nordeste 26 Nordeste 0 940.8 -- 25
2020-09-09 15:00:00 26.5 5 Este 24 Este 0 941.1 -- 28
2020-09-09 14:00:00 25.1 9 Sur 32 Sudeste 0 941.6 -- 30
2020-09-09 13:00:00 24.4 9 Sudeste 30 Sudeste 0 942.4 -- 32
2020-09-09 12:00:00 22.7 13 Sudeste 29 Sudeste 0 942.8 -- 38
2020-09-09 11:00:00 20 13 Este 23 Sudeste 0 943 -- 46
2020-09-09 10:00:00 16.9 6 Este 28 Este 0 942.5 -- 57
2020-09-09 09:00:00 13.8 6 Este 11 Sur 0 942.4 -- 67
2020-09-09 08:00:00 11.9 0 Calma 11 Sur 0 941.8 -- 72
2020-09-09 07:00:00 12.8 3 Sudeste 28 Este 0 941.5 -- 70
2020-09-09 06:00:00 12.7 9 Este 16 Este 0 941.3 -- 70
2020-09-09 05:00:00 13.2 12 Este 17 Este 0 941.5 -- 68
2020-09-09 04:00:00 14.1 9 Este 18 Este 0 941.6 -- 66
2020-09-09 03:00:00 15.7 14 Este 20 Este 0 941.4 -- 61
2020-09-09 02:00:00 16.2 10 Sudeste 22 Este 0 941.6 -- 52
2020-09-09 01:00:00 16.2 12 Este 17 Este 0 941.7 -- 47
2020-09-09 00:00:00 17.5 9 Este 21 Este 0 941.8 -- 41
2020-09-08 23:00:00 18.8 10 Este 14 Este 0 941.6 -- 38
2020-09-08 22:00:00 20.1 9 Este 28 Este 0 941.3 -- 34
2020-09-08 21:00:00 22.3 13 Este 34 Este 0 940.8 -- 30
2020-09-08 20:00:00 24.5 19 Este 32 Este 0 940.4 -- 25
2020-09-08 19:00:00 25.6 19 Este 38 Este 0 940.3 -- 23
2020-09-08 18:00:00 25.5 14 Este 37 Sudeste 0 940.4 -- 21
2020-09-08 17:00:00 25.5 14 Este 40 Este 0 940.6 -- 24
2020-09-08 16:00:00 25.4 19 Este 46 Este 0 940.9 -- 27
2020-09-08 15:00:00 24.5 24 Este 51 Este 0 941.3 -- 29
2020-09-08 14:00:00 23.4 24 Este 48 Este 0 941.7 -- 36
2020-09-08 13:00:00 22.1 21 Este 46 Este 0 942.2 -- 43
2020-09-08 12:00:00 20.3 22 Este 50 Este 0 942.6 -- 51
2020-09-08 11:00:00 18.6 34 Este 52 Este 0 942.7 -- 59
2020-09-08 10:00:00 16.1 17 Este 33 Este 0 942.6 -- 71
2020-09-08 09:00:00 13.9 9 Nordeste 16 Nordeste 0 942.4 -- 81
2020-09-08 08:00:00 12.8 13 Nordeste 30 Nordeste 0 941.9 -- 84
2020-09-08 07:00:00 13.2 12 Nordeste 20 Nordeste 0 941.4 -- 83
2020-09-08 06:00:00 13.3 13 Nordeste 17 Nordeste 0 941.2 -- 82
2020-09-08 05:00:00 13.4 8 Nordeste 17 Este 0 941 -- 81
2020-09-08 04:00:00 14.3 9 Este 16 Este 0 941.2 -- 77
2020-09-08 03:00:00 15.4 11 Este 23 Este 0 941.2 -- 73
2020-09-08 02:00:00 16.3 14 Este 27 Este 0 941 -- 67
2020-09-08 01:00:00 17.2 13 Este 24 Este 0 940.9 -- 53
2020-09-08 00:00:00 18 15 Nordeste 26 Este 0 940.6 -- 25
2020-09-07 23:00:00 18.9 9 Nordeste 29 Nordeste 0 940.1 -- 24
2020-09-07 22:00:00 20.9 8 Norte 31 Nordeste 0 939.5 -- 20
2020-09-07 21:00:00 23.1 9 Norte 32 Nordeste 0 938.7 -- 17
2020-09-07 20:00:00 25.2 13 Norte 39 Norte 0 938.3 -- 17
2020-09-07 19:00:00 26 21 Norte 41 Norte 0 938.3 -- 17
2020-09-07 18:00:00 26.5 17 Norte 37 Norte 0 938.1 -- 14
2020-09-07 17:00:00 26.5 16 Noroeste 44 Norte 0 938.1 -- 17
2020-09-07 16:00:00 25.5 17 Norte 41 Norte 0 938.6 -- 20
2020-09-07 15:00:00 24.9 11 Norte 39 Norte 0 939.1 -- 23
2020-09-07 14:00:00 24 15 Norte 46 Nordeste 0 939.4 -- 24
2020-09-07 13:00:00 22 18 Norte 39 Norte 0 939.6 -- 28
2020-09-07 12:00:00 20.8 19 Norte 49 Norte 0 939.8 -- 32
2020-09-07 11:00:00 19 20 Norte 43 Nordeste 0 939.5 -- 38
2020-09-07 10:00:00 17.1 17 Norte 26 Norte 0 939 -- 47
2020-09-07 09:00:00 15.5 9 Noroeste 25 Norte 0 938.5 -- 56
2020-09-07 08:00:00 15.1 11 Norte 26 Norte 0 937.8 -- 58
2020-09-07 07:00:00 16.3 11 Norte 27 Norte 0 937.3 -- 56
2020-09-07 06:00:00 17.2 13 Norte 27 Norte 0 936.7 -- 52
2020-09-07 05:00:00 17.5 10 Noroeste 25 Norte 0 936.6 -- 45
2020-09-07 04:00:00 19.8 12 Noroeste 21 Norte 0 936.8 -- 38
2020-09-07 03:00:00 19 10 Noroeste 30 Oeste 0 936.9 -- 38
2020-09-07 02:00:00 19.4 10 Oeste 24 Oeste 0 937 -- 36
2020-09-07 01:00:00 21.2 4 Noroeste 21 Norte 0 936.8 -- 32
2020-09-07 00:00:00 20.8 8 Noroeste 26 Oeste 0 936.4 -- 33
2020-09-06 23:00:00 24.3 4 Norte 14 Oeste 0 936 -- 34
2020-09-06 22:00:00 26.4 5 Norte 16 Norte 0 935.6 -- 26
2020-09-06 21:00:00 29.1 5 Sudeste 11 Sudeste 0 935 -- 22
2020-09-06 20:00:00 31.5 5 Sudeste 10 Sudeste 0 934.9 -- 19
2020-09-06 19:00:00 31.5 6 Este 26 Este 0 935 -- 19
2020-09-06 18:00:00 33 6 Sudeste 19 Sudeste 0 935.3 -- 18
2020-09-06 17:00:00 32.6 8 Este 17 Sur 0 935.8 -- 19
2020-09-06 16:00:00 31.6 6 Nordeste 21 Nordeste 0 936.3 -- 21
2020-09-06 15:00:00 30.1 8 Este 21 Sudeste 0 936.9 -- 24
2020-09-06 14:00:00 29.3 8 Sudeste 19 Este 0 937.4 -- 29
2020-09-06 13:00:00 27.5 8 Este 28 Este 0 938 -- 31
2020-09-06 12:00:00 25.2 9 Sudeste 31 Sudeste 0 938.4 -- 39
2020-09-06 11:00:00 22.5 18 Este 30 Sudeste 0 938.3 -- 48
2020-09-06 10:00:00 19.3 12 Este 24 Este 0 938.1 -- 65
2020-09-06 09:00:00 17.6 8 Sudeste 18 Nordeste 0 938.1 -- 70
2020-09-06 08:00:00 15.6 8 Este 21 Este 0 937.8 -- 73
2020-09-06 07:00:00 16.4 8 Este 20 Este 0 937.3 -- 71
2020-09-06 06:00:00 18 12 Sudeste 24 Sudeste 0 937.4 -- 67
2020-09-06 05:00:00 18.9 9 Sudeste 27 Este 0 937.6 -- 67
2020-09-06 04:00:00 19.9 15 Este 31 Este 0 937.8 -- 65
2020-09-06 03:00:00 21 19 Este 34 Sudeste 0 938.2 -- 61
2020-09-06 02:00:00 21.7 12 Sudeste 30 Sudeste 0 938.4 -- 53
2020-09-06 01:00:00 22.7 6 Sudeste 30 Este 0 938.4 -- 42
2020-09-06 00:00:00 23.9 13 Sudeste 42 Sudeste 0 938 -- 33
2020-09-05 23:00:00 25.2 3 Sur 15 Sur 0 937.6 -- 27
2020-09-05 22:00:00 26.5 4 Este 12 Sur 0 937.3 -- 25
2020-09-05 21:00:00 28.7 7 Este 9 Este 0 936.8 -- 20
2020-09-05 20:00:00 32.3 2 Sur 15 Este 0 936.8 -- 15
2020-09-05 19:00:00 32 9 Este 18 Sur 0 937.2 -- 16
2020-09-05 18:00:00 33 9 Sur 18 Sur 0 937.4 -- 14
2020-09-05 17:00:00 32.2 10 Sudeste 25 Nordeste 0 937.9 -- 16
2020-09-05 16:00:00 31.7 9 Este 23 Este 0 938.7 -- 19
2020-09-05 15:00:00 30.2 10 Este 20 Este 0 939.5 -- 22
2020-09-05 14:00:00 28.5 7 Este 19 Este 0 939.9 -- 30
2020-09-05 13:00:00 26.5 5 Este 30 Este 0 940.7 -- 39
2020-09-05 12:00:00 23.6 9 Este 25 Este 0 941.1 -- 48
2020-09-05 11:00:00 21.5 9 Sudeste 23 Este 0 941 -- 59
2020-09-05 10:00:00 18.6 9 Este 19 Este 0 941 -- 71
2020-09-05 09:00:00 15.3 6 Norte 17 Norte 0 941.1 -- 80
2020-09-05 08:00:00 11.9 8 Norte 17 Oeste 0 940.8 -- 75
2020-09-05 07:00:00 12.6 2 Oeste 17 Este 0 940.6 -- 73
2020-09-05 06:00:00 15.1 5 Este 17 Nordeste 0 940.6 -- 77
2020-09-05 05:00:00 15.8 3 Nordeste 20 Este 0 940.9 -- 69
2020-09-05 04:00:00 16.7 8 Este 21 Este 0 941 -- 63
2020-09-05 03:00:00 16.9 10 Este 18 Este 0 941.2 -- 56
2020-09-05 02:00:00 17 12 Este 20 Nordeste 0 941.5 -- 50
2020-09-05 01:00:00 20 6 Nordeste 22 Este 0 941.6 -- 43
2020-09-05 00:00:00 21.3 8 Este 24 Este 0 941.6 -- 38
2020-09-04 23:00:00 22.1 4 Este 9 Este 0 941.7 -- 34
2020-09-04 22:00:00 23.1 6 Nordeste 12 Nordeste 0 941.6 -- 31
2020-09-04 21:00:00 25.8 9 Este 26 Nordeste 0 941.1 -- 26
2020-09-04 20:00:00 28.7 18 Este 33 Este 0 940.8 -- 20
2020-09-04 19:00:00 29.8 15 Este 32 Este 0 941 -- 17
2020-09-04 18:00:00 29.9 21 Este 41 Nordeste 0 941.3 -- 15
2020-09-04 17:00:00 29.6 20 Este 41 Sudeste 0 941.7 -- 16
2020-09-04 16:00:00 29.1 19 Este 39 Este 0 942.5 -- 17
2020-09-04 15:00:00 28.3 20 Este 39 Este 0 943.4 -- 21
2020-09-04 14:00:00 27.4 21 Este 48 Este 0 943.9 -- 21
2020-09-04 13:00:00 25.9 21 Este 39 Sudeste 0 944.4 -- 28
2020-09-04 12:00:00 24.6 22 Este 39 Este 0 944.5 -- 36
2020-09-04 11:00:00 22.6 17 Sudeste 31 Sudeste 0 944.7 -- 49
2020-09-04 10:00:00 19.5 12 Sudeste 27 Sudeste 0 944.3 -- 62
2020-09-04 09:00:00 17.5 9 Sur 16 Este 0 943.9 -- 70
2020-09-04 08:00:00 15.4 8 Sudeste 18 Este 0 943.3 -- 75
2020-09-04 07:00:00 16.4 8 Sudeste 19 Este 0 943 -- 70
2020-09-04 06:00:00 16.8 9 Sudeste 21 Sudoeste 0 942.8 -- 68
2020-09-04 05:00:00 17.5 14 Sudeste 25 Este 0 942.8 -- 66
2020-09-04 04:00:00 17.5 13 Este 20 Este 0 942.7 -- 62
2020-09-04 03:00:00 17.9 13 Este 23 Este 0 942.8 -- 54
2020-09-04 02:00:00 19.5 13 Este 31 Sudeste 0 943 -- 44
2020-09-04 01:00:00 22.1 7 Sur 16 Sudeste 0 942.5 -- 35
2020-09-04 00:00:00 23 7 Sur 15 Sudeste 0 942.5 -- 29
2020-09-03 23:00:00 23.8 6 Sudeste 16 Sudeste 0 942.2 -- 27
2020-09-03 22:00:00 24.3 7 Este 13 Este 0 941.7 -- 24
2020-09-03 21:00:00 26.7 8 Este 17 Este 0 941 -- 21
2020-09-03 20:00:00 29.7 8 Este 19 Este 0 940.7 -- 18
2020-09-03 19:00:00 30.6 3 Sudeste 21 Este 0 940.6 -- 17
2020-09-03 18:00:00 30.4 9 Este 21 Sudeste 0 940.5 -- 18
2020-09-03 17:00:00 31.2 7 Sudoeste 21 Sudeste 0 940.7 -- 18
2020-09-03 16:00:00 29.9 10 Nordeste 27 Este 0 941.1 -- 20
2020-09-03 15:00:00 29.7 8 Sudeste 20 Sudeste 0 941.5 -- 20
2020-09-03 14:00:00 28.7 6 Sur 19 Este 0 941.8 -- 23
2020-09-03 13:00:00 26.8 6 Sudeste 28 Este 0 942 -- 35
2020-09-03 12:00:00 23.9 9 Este 25 Este 0 942.3 -- 45
2020-09-03 11:00:00 21 12 Este 25 Este 0 942 -- 58
2020-09-03 10:00:00 18.4 8 Este 16 Sur 0 941.5 -- 70
2020-09-03 09:00:00 15.2 3 Noroeste 18 Oeste 0 941.2 -- 72
2020-09-03 08:00:00 11.8 12 Noroeste 19 Oeste 0 940.7 -- 73
2020-09-03 07:00:00 12.1 4 Oeste 15 Este 0 940.2 -- 67
2020-09-03 06:00:00 15.1 8 Sudeste 16 Este 0 939.8 -- 72
2020-09-03 05:00:00 14.6 10 Este 14 Este 0 939.8 -- 68
2020-09-03 04:00:00 15 12 Este 19 Nordeste 0 939.7 -- 59
2020-09-03 03:00:00 16.1 6 Nordeste 24 Este 0 939.3 -- 33
2020-09-03 02:00:00 15.2 7 Sudoeste 12 Sudoeste 0 938.9 -- 38
2020-09-03 01:00:00 17.4 9 Sudoeste 12 Sudoeste 0 938.6 -- 31
2020-09-03 00:00:00 18 6 Oeste 19 Oeste 0 938.5 -- 30
2020-09-02 23:00:00 20.4 4 Noroeste 13 Noroeste 0 938.3 -- 27
2020-09-02 22:00:00 22.8 5 Norte 14 Noroeste 0 937.8 -- 23
2020-09-02 21:00:00 25.6 6 Norte 17 Noroeste 0 937.3 -- 20
2020-09-02 20:00:00 27.7 6 Norte 21 Nordeste 0 936.8 -- 18
2020-09-02 19:00:00 28.7 6 Norte 23 Norte 0 936.5 -- 17
2020-09-02 18:00:00 28.5 8 Nordeste 23 Norte 0 936.3 -- 17
2020-09-02 17:00:00 28.9 4 Norte 23 Noroeste 0 936.3 -- 17
2020-09-02 16:00:00 28.2 4 Nordeste 24 Noroeste 0 936.4 -- 18
2020-09-02 15:00:00 27.8 3 Sudoeste 28 Nordeste 0 936.7 -- 24
2020-09-02 14:00:00 26 7 Norte 30 Nordeste 0 936.8 -- 31
2020-09-02 13:00:00 24.7 10 Este 29 Nordeste 0 937.4 -- 39
2020-09-02 12:00:00 22.2 10 Nordeste 24 Norte 0 937.5 -- 51
2020-09-02 11:00:00 20.3 9 Este 23 Norte 0 937.1 -- 61
2020-09-02 10:00:00 17.9 12 Nordeste 23 Norte 0 936.6 -- 69
2020-09-02 09:00:00 14.4 10 Norte 22 Norte 0 936.3 -- 64
2020-09-02 08:00:00 11 8 Noroeste 17 Norte 0 935.7 -- 61
2020-09-02 07:00:00 11.5 3 Oeste 10 Este 0 935.1 -- 53
2020-09-02 06:00:00 14.1 3 Sudoeste 14 Sur 0 934.7 -- 50
2020-09-02 05:00:00 15 7 Sudeste 15 Este 0 934.5 -- 46
2020-09-02 04:00:00 14.9 6 Nordeste 21 Nordeste 0 934.3 -- 37
2020-09-02 03:00:00 14.5 9 Oeste 19 Oeste 0 934.1 -- 37
2020-09-02 02:00:00 15 12 Oeste 19 Sudoeste 0 934.1 -- 37
2020-09-02 01:00:00 17.2 5 Sur 18 Sudoeste 0 933.9 -- 31
2020-09-02 00:00:00 19.8 0 Calma 20 Nordeste 0 933.8 -- 26
2020-09-01 23:00:00 21.7 6 Nordeste 13 Nordeste 0 933.6 -- 22
2020-09-01 22:00:00 23.2 7 Nordeste 18 Noroeste 0 933.3 -- 20
2020-09-01 21:00:00 25.1 11 Norte 22 Noroeste 0 932.9 -- 18
2020-09-01 20:00:00 26.2 6 Noroeste 17 Noroeste 0 932.6 -- 18
2020-09-01 19:00:00 27.1 10 Oeste 26 Sur 0 932.6 -- 18
2020-09-01 18:00:00 27.4 5 Oeste 18 Oeste 0 932.7 -- 17
2020-09-01 17:00:00 26.8 8 Nordeste 20 Noroeste 0 932.9 -- 16
2020-09-01 16:00:00 27.6 6 Noroeste 21 Oeste 0 933.6 -- 15
2020-09-01 15:00:00 26.6 5 Este 27 Este 0 934.1 -- 20
2020-09-01 14:00:00 25 8 Sudeste 25 Este 0 934.7 -- 25
2020-09-01 13:00:00 21.6 9 Este 23 Este 0 935.4 -- 38
2020-09-01 12:00:00 20.2 7 Sudeste 24 Sur 0 935.8 -- 49
2020-09-01 11:00:00 17.2 8 Sudeste 17 Sudeste 0 935.7 -- 46
2020-09-01 10:00:00 15.2 2 Este 14 Norte 0 936 -- 39
2020-09-01 09:00:00 13.5 0 Calma 13 Nordeste 0 935.8 -- 42
2020-09-01 08:00:00 12.2 0 Calma 12 Oeste 0 935.7 -- 41
2020-09-01 07:00:00 11.5 0 Calma 12 Este 0 935.4 -- 43
2020-09-01 06:00:00 11 5 Oeste 14 Sur 0 935.5 -- 45
2020-09-01 05:00:00 12.6 3 Sur 17 Nordeste 0 936.1 -- 40
2020-09-01 04:00:00 11.9 7 Este 27 Este 0 936.5 -- 39
2020-09-01 03:00:00 13.4 6 Sudoeste 10 Norte 0 936.8 -- 37
2020-09-01 02:00:00 13.2 9 Oeste 22 Oeste 0 937.3 -- 37
2020-09-01 01:00:00 14.8 7 Sudoeste 21 Sudoeste 0 937.3 -- 33
2020-09-01 00:00:00 16.5 2 Oeste 9 Noroeste 0 937.4 -- 30
2020-08-31 23:00:00 18 5 Norte 22 Nordeste 0 937.3 -- 28
2020-08-31 22:00:00 20.1 5 Norte 15 Noroeste 0 937 -- 23
2020-08-31 21:00:00 23.2 9 Norte 31 Norte 0 936.6 -- 18
2020-08-31 20:00:00 25.6 4 Este 14 Este 0 936.4 -- 15
2020-08-31 19:00:00 26.5 3 Nordeste 13 Sudoeste 0 936.8 -- 14
2020-08-31 18:00:00 26.1 4 Oeste 24 Oeste 0 937.1 -- 15
2020-08-31 17:00:00 25.8 5 Este 26 Nordeste 0 937.6 -- 16
2020-08-31 16:00:00 25.1 7 Nordeste 22 Norte 0 938.3 -- 17
2020-08-31 15:00:00 23.9 8 Nordeste 27 Nordeste 0 939.1 -- 18
2020-08-31 14:00:00 23.2 7 Sudoeste 23 Sur 0 939.6 -- 20
2020-08-31 13:00:00 21.7 8 Este 22 Este 0 940.1 -- 29
2020-08-31 12:00:00 19.2 8 Este 18 Nordeste 0 940.5 -- 39
2020-08-31 11:00:00 17.9 5 Sudeste 18 Sur 0 940.3 -- 43
2020-08-31 10:00:00 15.6 5 Nordeste 12 Oeste 0 940 -- 44
2020-08-31 09:00:00 10.2 2 Oeste 12 Noroeste 0 939.8 -- 53
2020-08-31 08:00:00 7.4 4 Noroeste 8 Noroeste 0 939.6 -- 57
2020-08-31 07:00:00 8.3 4 Noroeste 11 Noroeste 0 939.1 -- 55
2020-08-31 06:00:00 8.8 4 Noroeste 13 Norte 0 938.8 -- 51
2020-08-31 05:00:00 8.9 5 Oeste 12 Oeste 0 938.9 -- 48
2020-08-31 04:00:00 10.3 6 Noroeste 15 Oeste 0 938.8 -- 44
2020-08-31 03:00:00 10.7 6 Sudoeste 19 Norte 0 938.7 -- 42
2020-08-31 02:00:00 11.8 7 Noroeste 20 Norte 0 938.5 -- 37
2020-08-31 01:00:00 14.7 10 Norte 23 Norte 0 938.5 -- 30
2020-08-31 00:00:00 15.4 11 Norte 24 Norte 0 938 -- 28
2020-08-30 23:00:00 16.5 14 Norte 24 Norte 0 937.4 -- 26
2020-08-30 22:00:00 17.7 14 Norte 26 Norte 0 936.6 -- 25
2020-08-30 21:00:00 20 9 Norte 30 Norte 0 935.8 -- 22
2020-08-30 20:00:00 21.9 11 Noroeste 28 Norte 0 935.4 -- 20
2020-08-30 19:00:00 22.4 12 Norte 36 Noroeste 0 935 -- 17
2020-08-30 18:00:00 22.8 11 Noroeste 35 Noroeste 0 934.8 -- 19
2020-08-30 17:00:00 22.3 13 Nordeste 35 Norte 0 934.8 -- 21
2020-08-30 16:00:00 22.6 14 Noroeste 30 Norte 0 935.1 -- 23
2020-08-30 15:00:00 20.8 15 Norte 35 Nordeste 0 935.4 -- 26
2020-08-30 14:00:00 19.7 14 Norte 31 Norte 0 935.9 -- 30
2020-08-30 13:00:00 18.2 14 Norte 28 Norte 0 936.2 -- 34
2020-08-30 12:00:00 17 15 Nordeste 33 Nordeste 0 936.3 -- 39
2020-08-30 11:00:00 15.4 9 Nordeste 32 Nordeste 0 936.2 -- 48
2020-08-30 10:00:00 13.4 14 Norte 25 Noroeste 0 935.8 -- 56
2020-08-30 09:00:00 10.7 6 Norte 14 Norte 0 935.5 -- 63
2020-08-30 08:00:00 9 7 Noroeste 14 Noroeste 0 934.9 -- 67
2020-08-30 07:00:00 9.4 6 Norte 12 Noroeste 0 934.5 -- 65
2020-08-30 06:00:00 10.3 6 Norte 16 Norte 0 934.4 -- 60
2020-08-30 05:00:00 11.4 6 Noroeste 19 Norte 0 934.2 -- 59
2020-08-30 04:00:00 12.7 12 Noroeste 24 Norte 0 934.1 -- 54
2020-08-30 03:00:00 12.7 3 Noroeste 19 Norte 0 933.8 -- 51
2020-08-30 02:00:00 14 8 Norte 24 Norte 0 933.4 -- 47
2020-08-30 01:00:00 14.9 10 Norte 24 Norte 0 933 -- 42
2020-08-30 00:00:00 15.9 14 Norte 30 Norte 0 932.5 -- 38
2020-08-29 23:00:00 17.1 14 Norte 28 Norte 0 931.7 -- 34
2020-08-29 22:00:00 19.1 17 Norte 42 Norte 0 931.2 -- 29
2020-08-29 21:00:00 20.7 18 Noroeste 39 Norte 0 930.3 -- 25
2020-08-29 20:00:00 22.1 20 Noroeste 39 Norte 0 929.7 -- 23
2020-08-29 19:00:00 23.1 19 Noroeste 48 Noroeste 0 929.5 -- 21
2020-08-29 18:00:00 23.5 23 Noroeste 53 Norte 0 929.3 -- 22
2020-08-29 17:00:00 22.9 27 Noroeste 47 Norte 0 929.2 -- 23
2020-08-29 16:00:00 22.6 23 Noroeste 49 Norte 0 929.2 -- 24
2020-08-29 15:00:00 22.1 23 Norte 49 Norte 0 929.5 -- 26
2020-08-29 14:00:00 21.8 20 Norte 52 Norte 0 929.5 -- 25
2020-08-29 13:00:00 20.9 22 Norte 54 Norte 0 929.5 -- 28
2020-08-29 12:00:00 19.3 25 Norte 52 Norte 0 929.6 -- 31
2020-08-29 11:00:00 17.9 23 Norte 48 Norte 0 929.4 -- 37
2020-08-29 10:00:00 16.6 20 Norte 33 Norte 0 929.2 -- 48
2020-08-29 09:00:00 15.3 14 Noroeste 26 Norte 0 928.7 -- 60
2020-08-29 08:00:00 14.1 16 Noroeste 27 Norte 0 928.2 -- 64
2020-08-29 07:00:00 15.2 13 Noroeste 26 Noroeste 0 927.8 -- 60
2020-08-29 06:00:00 15.6 9 Noroeste 31 Noroeste 0 927.3 -- 50
2020-08-29 05:00:00 16.3 14 Oeste 24 Oeste 0 927.4 -- 41
2020-08-29 04:00:00 17.4 15 Oeste 34 Noroeste 0 927.5 -- 37
2020-08-29 03:00:00 19.1 15 Noroeste 32 Noroeste 0 927.5 -- 33
2020-08-29 02:00:00 19.5 12 Noroeste 27 Oeste 0 927.8 -- 24
2020-08-29 01:00:00 20.2 11 Oeste 32 Oeste 0 928 -- 23
2020-08-29 00:00:00 20.3 12 Noroeste 28 Oeste 0 927.7 -- 23
2020-08-28 23:00:00 23.2 10 Noroeste 32 Oeste 0 927.9 -- 18
2020-08-28 22:00:00 25.8 12 Oeste 36 Oeste 0 927.8 -- 16
2020-08-28 21:00:00 28.2 19 Oeste 42 Oeste 0 927.2 -- 16
2020-08-28 20:00:00 30.6 25 Sudoeste 45 Sudoeste 0 926.9 -- 18
2020-08-28 19:00:00 32.1 22 Oeste 46 Oeste 0 926.9 -- 20
2020-08-28 18:00:00 33.1 26 Oeste 53 Sudoeste 0 927 -- 20
2020-08-28 17:00:00 33.4 25 Oeste 48 Oeste 0 927.5 -- 19
2020-08-28 16:00:00 33.2 24 Oeste 46 Sudoeste 0 928.2 -- 19
2020-08-28 15:00:00 33.1 24 Sudoeste 47 Sudoeste 0 929 -- 16
2020-08-28 14:00:00 32.4 16 Oeste 49 Sudoeste 0 929.5 -- 23
2020-08-28 13:00:00 30.7 10 Norte 18 Norte 0 930.4 -- 26
2020-08-28 12:00:00 28.8 7 Norte 24 Noroeste 0 931.4 -- 29
2020-08-28 11:00:00 27.5 17 Noroeste 34 Oeste 0 931.5 -- 32
2020-08-28 10:00:00 25.3 15 Oeste 36 Oeste 0 931.5 -- 40
2020-08-28 09:00:00 22.7 14 Noroeste 32 Oeste 0 931.6 -- 48
2020-08-28 08:00:00 21.1 14 Noroeste 33 Oeste 0 931.5 -- 49
2020-08-28 07:00:00 21.7 17 Noroeste 34 Oeste 0 931.4 -- 44
2020-08-28 06:00:00 22.6 17 Oeste 37 Oeste 0 931.7 -- 41
2020-08-28 05:00:00 23.1 19 Noroeste 36 Oeste 0 932 -- 39
2020-08-28 04:00:00 24.1 14 Noroeste 31 Oeste 0 932.6 -- 35
2020-08-28 03:00:00 25.1 15 Noroeste 27 Norte 0 933.1 -- 30
2020-08-28 02:00:00 23.6 12 Noroeste 19 Norte 0 933.8 -- 30
2020-08-28 01:00:00 23.6 8 Oeste 14 Oeste 0 933.9 -- 26
2020-08-28 00:00:00 24.7 8 Norte 18 Norte 0 934.2 -- 23
2020-08-27 23:00:00 27.4 9 Noroeste 18 Norte 0 934.4 -- 20
2020-08-27 22:00:00 30.4 12 Norte 25 Norte 0 934.3 -- 16
2020-08-27 21:00:00 32.8 11 Noroeste 22 Nordeste 0 934.2 -- 13
2020-08-27 20:00:00 35.6 11 Norte 27 Noroeste 0 934 -- 11
2020-08-27 19:00:00 36.8 8 Este 20 Sur 0 934.5 -- 10
2020-08-27 18:00:00 36.9 6 Este 21 Sur 0 935.3 -- 10
2020-08-27 17:00:00 37.1 10 Sudeste 21 Sur 0 936 -- 10
2020-08-27 16:00:00 36.3 6 Este 19 Noroeste 0 936.8 -- 10
2020-08-27 15:00:00 36.2 11 Sur 28 Sudoeste 0 937.8 -- 11
2020-08-27 14:00:00 34.9 5 Sudoeste 20 Oeste 0 938.4 -- 12
2020-08-27 13:00:00 34 5 Sur 12 Sudoeste 0 938.9 -- 13
2020-08-27 12:00:00 32.2 5 Sudeste 14 Oeste 0 939.4 -- 16
2020-08-27 11:00:00 30.5 2 Sudeste 14 Sur 0 939.5 -- 18
2020-08-27 10:00:00 26.7 0 Calma 6 Sudoeste 0 939.3 -- 23
2020-08-27 09:00:00 21 2 Sudoeste 16 Este 0 939.4 -- 31
2020-08-27 08:00:00 18.4 4 Sudeste 17 Este 0 939.1 -- 33
2020-08-27 07:00:00 19.1 2 Sur 20 Este 0 938.9 -- 32
2020-08-27 06:00:00 20.4 10 Sudoeste 22 Oeste 0 938.9 -- 29
2020-08-27 05:00:00 22 10 Sudoeste 19 Sudoeste 0 939 -- 26
2020-08-27 04:00:00 21.5 9 Sudoeste 17 Oeste 0 939.2 -- 26
2020-08-27 03:00:00 22.6 8 Sudoeste 13 Sudoeste 0 939.5 -- 25
2020-08-27 02:00:00 23.7 7 Sudoeste 15 Oeste 0 939.7 -- 24
2020-08-27 01:00:00 24.5 7 Oeste 14 Oeste 0 939.7 -- 24
2020-08-27 00:00:00 24.5 9 Oeste 15 Noroeste 0 939.7 -- 25
2020-08-26 23:00:00 26.8 12 Oeste 15 Oeste 0 939.6 -- 24
2020-08-26 22:00:00 29.6 11 Oeste 21 Noroeste 0 939.1 -- 20
2020-08-26 21:00:00 33.1 16 Oeste 27 Oeste 0 938.2 -- 14
2020-08-26 20:00:00 36.3 9 Oeste 29 Oeste 0 937.7 -- 12
2020-08-26 19:00:00 37.3 12 Oeste 29 Oeste 0 937.6 -- 12
2020-08-26 18:00:00 37.7 15 Oeste 28 Oeste 0 937.8 -- 12
2020-08-26 17:00:00 37.8 6 Sudoeste 26 Sudoeste 0 938.2 -- 12
2020-08-26 16:00:00 37.2 7 Sudeste 22 Sudoeste 0 938.7 -- 12
2020-08-26 15:00:00 36 5 Este 22 Sudeste 0 939.2 -- 14
2020-08-26 14:00:00 34.5 8 Nordeste 21 Nordeste 0 939.6 -- 15
2020-08-26 13:00:00 34.2 5 Sur 14 Sudeste 0 940 -- 16
2020-08-26 12:00:00 31.6 7 Este 12 Este 0 940.3 -- 20
2020-08-26 11:00:00 28.3 4 Sudeste 9 Sudeste 0 939.9 -- 29
2020-08-26 10:00:00 24.9 0 Calma 19 Este 0 939.6 -- 37
2020-08-26 09:00:00 21.7 5 Nordeste 17 Este 0 939.2 -- 42
2020-08-26 08:00:00 18.6 6 Sur 19 Sudoeste 0 938.9 -- 41
2020-08-26 07:00:00 19.7 3 Sur 6 Sur 0 938.7 -- 38
2020-08-26 06:00:00 19.9 3 Noroeste 21 Nordeste 0 938.4 -- 37
2020-08-26 05:00:00 19.5 7 Oeste 20 Oeste 0 938.1 -- 37
2020-08-26 04:00:00 20.5 5 Sudoeste 11 Norte 0 938 -- 36
2020-08-26 03:00:00 21.9 3 Oeste 30 Este 0 938.2 -- 33
2020-08-26 02:00:00 23.1 9 Sur 30 Este 0 938.3 -- 29
2020-08-26 01:00:00 23.5 9 Oeste 17 Oeste 0 938 -- 28
2020-08-26 00:00:00 24 10 Noroeste 31 Oeste 0 937.9 -- 28